• Join FlightAware (Why Join?)
  • Login
  • US Flag 
01:07AM EDT


 

Airport Tracker/Info


-or-


 

Live Flight TrackerFlight Track Log ✈ SKW5485 ✈ 01-May-2013 ✈ KORD - KABQ

Flight Track Log - Related Links

Times and Time Zones

All times are in EDT time to prevent confusion due to time zone crossing. See the SKW5485 flight status page for this flight to view local times or setup timezone preferences in your user account.

Time Position Orientation Groundspeed Altitude Reporting Facility
EDT Latitude Longitude Course Direction KTS MPH feet Rate Location/Type
11:15AM 41.9167 -87.9333 253° West 169 194 2,700  Level Chicago TRACON
11:17AM 41.8767 -88.0500 245° Southwest 250 288 6,000 1,920 Climbing Chicago Center
11:18AM 41.8354 -88.4731 255° West  Level FlightAware Approximate
11:18AM 41.8931 -88.1500 282° West 276 318 8,600  Level Chicago Center
11:19AM 41.8035 -88.6188 254° West  Level FlightAware Approximate
11:19AM 41.8975 -88.2797 273° West 289 333 11,500  Level Chicago Center
11:20AM 41.7711 -88.7643 253° West  Level FlightAware Approximate
11:20AM 41.9039 -88.3928 274° West 301 346 12,100  Level Chicago Center
11:21AM 41.7387 -88.9097 253° West  Level FlightAware Approximate
11:21AM 41.9111 -88.5094 275° West 313 360 13,400  Level Chicago Center
11:22AM 41.9147 -88.6397 272° West 345 397 15,200 1,740 Climbing Chicago Center
11:23AM 41.8914 -88.7678 256° West 358 412 17,000 1,920 Climbing Chicago Center
11:24AM 41.8472 -88.9172 248° West 361 415 19,200 1,860 Climbing Chicago Center
11:25AM 41.8103 -89.0419 248° West 363 418 20,900 1,440 Climbing Chicago Center
11:26AM 41.7708 -89.1731 248° West 377 434 22,200 1,260 Climbing Chicago Center
11:27AM 41.7308 -89.3083 248° West 391 450 23,500 1,260 Climbing Chicago Center
11:28AM 41.6897 -89.4453 248° West 398 458 24,900 1,260 Climbing Chicago Center
11:29AM 41.6347 -89.5917 243° Southwest 413 475 26,200 1,080 Climbing Chicago Center
11:30AM 41.5739 -89.7208 238° Southwest 414 476 27,200 1,260 Climbing Chicago Center
11:31AM 41.5153 -89.8517 239° Southwest 413 475 28,900 1,200 Climbing Chicago Center
11:33AM 41.4789 -89.9967 252° West 419 482 29,700 840 Climbing Chicago Center
11:34AM 41.4367 -90.1753 253° West 423 487 30,700 840 Climbing Chicago Center
11:35AM 41.4008 -90.3247 252° West 425 489 31,500 840 Climbing Chicago Center
11:36AM 41.3614 -90.4783 251° West 437 503 32,500 900 Climbing Chicago Center
11:37AM 41.3244 -90.6314 252° West 439 505 33,400 840 Climbing Chicago Center
11:38AM 41.2806 -90.7797 249° West 433 498 34,300 780 Climbing Chicago Center
11:39AM 41.2372 -90.9264 249° West 428 493 35,100 780 Climbing Chicago Center
11:40AM 41.1850 -91.1028 249° West 430 495 36,000 420 Climbing Chicago Center
11:41AM 41.1406 -91.2489 248° West 429 494 36,000  Level Chicago Center
11:42AM 41.0953 -91.3989 248° West 437 503 36,000  Level Chicago Center
11:43AM 41.0503 -91.5514 249° West 443 510 36,000  Level Chicago Center
11:44AM 41.0000 -91.7172 248° West 446 513 36,000  Level Chicago Center
11:45AM 40.9533 -91.8678 248° West 445 512 36,000  Level Chicago Center
11:46AM 40.9078 -92.0167 248° West 443 510 36,000  Level Chicago Center
11:47AM 40.8617 -92.1664 248° West 444 511 36,000  Level Chicago Center
11:48AM 40.8056 -92.3453 248° West 444 511 36,000  Level Chicago Center
11:49AM 40.7589 -92.4936 247° West 444 511 36,000  Level Chicago Center
11:50AM 40.7128 -92.6422 248° West 445 512 36,000  Level Chicago Center
11:51AM 40.6669 -92.7892 248° West 443 510 36,000  Level Chicago Center
11:52AM 40.6197 -92.9339 247° West 439 505 36,000  Level Chicago Center
11:53AM 40.5886 -93.0347 248° West 437 503 36,000  Level Kansas City Center
11:54AM 40.5369 -93.1964 247° West 439 505 36,000  Level Kansas City Center
11:55AM 40.4892 -93.3408 247° West 439 505 36,000  Level Kansas City Center
11:56AM 40.4414 -93.4872 247° West 440 506 36,000  Level Kansas City Center
11:57AM 40.3939 -93.6336 247° West 440 506 36,000  Level Kansas City Center
11:58AM 40.3461 -93.7781 247° West 438 504 36,000  Level Kansas City Center
11:59AM 40.2897 -93.9522 247° West 437 503 36,000  Level Kansas City Center
12:00PM 40.2444 -94.0892 247° West 436 502 36,000  Level Kansas City Center
12:01PM 40.1886 -94.2503 246° West 436 502 36,000  Level Kansas City Center
12:02PM 40.1422 -94.3903 247° West 437 503 36,000  Level Kansas City Center
12:03PM 40.0878 -94.5519 246° West 437 503 36,000  Level Kansas City Center
12:04PM 40.0411 -94.6911 246° West 439 505 36,000  Level Kansas City Center
12:05PM 39.9864 -94.8508 246° West 434 499 36,000  Level Kansas City Center
12:06PM 39.9392 -94.9869 246° West 433 498 36,000  Level Kansas City Center
12:07PM 39.8817 -95.1419 244° Southwest 429 494 36,000  Level Kansas City Center
12:08PM 39.8322 -95.2753 244° Southwest 428 493 36,000  Level Kansas City Center
12:09PM 39.7742 -95.4294 244° Southwest 427 491 36,000  Level Kansas City Center
12:10PM 39.7244 -95.5606 244° Southwest 424 488 36,000  Level Kansas City Center
12:11PM 39.6678 -95.7136 244° Southwest 424 488 36,000  Level Kansas City Center
12:12PM 39.6181 -95.8425 243° Southwest 421 484 36,000  Level Kansas City Center
12:13PM 39.5611 -95.9928 244° Southwest 416 479 36,000  Level Kansas City Center
12:14PM 39.5125 -96.1214 244° Southwest 416 479 36,000  Level Kansas City Center
12:15PM 39.4586 -96.2592 243° Southwest 416 479 36,000  Level Kansas City Center
12:16PM 39.4067 -96.3925 243° Southwest 415 478 36,000  Level Kansas City Center
12:17PM 39.3492 -96.5447 244° Southwest 411 473 36,000  Level Kansas City Center
12:19PM 39.2986 -96.6700 242° Southwest 411 473 36,000  Level Kansas City Center
12:20PM 39.2422 -96.8164 244° Southwest 409 471 36,000  Level Kansas City Center
12:21PM 39.1936 -96.9408 243° Southwest 407 468 36,000  Level Kansas City Center
12:22PM 39.1453 -97.0642 243° Southwest 405 466 36,000  Level Kansas City Center
12:23PM 39.0892 -97.2103 244° Southwest 407 468 36,000  Level Kansas City Center
12:24PM 39.0400 -97.3347 243° Southwest 407 468 36,000  Level Kansas City Center
12:25PM 38.9825 -97.4783 243° Southwest 406 467 36,000  Level Kansas City Center
12:26PM 38.9339 -97.6017 243° Southwest 405 466 36,000  Level Kansas City Center
12:27PM 38.8847 -97.7500 247° West 405 466 36,000  Level Kansas City Center
12:28PM 38.8447 -97.8831 249° West 408 470 36,000  Level Kansas City Center
12:29PM 38.8033 -98.0172 248° West 407 468 36,000  Level Kansas City Center
12:30PM 38.7611 -98.1514 248° West 407 468 36,000  Level Kansas City Center
12:31PM 38.7122 -98.3111 249° West 403 464 36,000  Level Kansas City Center
12:32PM 38.6694 -98.4439 248° West 404 465 36,000  Level Kansas City Center
12:33PM 38.6283 -98.5761 248° West 402 463 36,000  Level Kansas City Center
12:34PM 38.5861 -98.7072 248° West 402 463 36,000  Level Kansas City Center
12:35PM 38.5436 -98.8394 248° West 402 463 36,000  Level Kansas City Center
12:36PM 38.5022 -98.9708 248° West 402 463 36,000  Level Kansas City Center
12:37PM 38.4517 -99.1281 248° West 401 461 36,000  Level Kansas City Center
12:38PM 38.4092 -99.2586 247° West 400 460 36,000  Level Kansas City Center
12:39PM 38.3669 -99.3894 248° West 400 460 36,000  Level Kansas City Center
12:40PM 38.3197 -99.5269 246° West 397 457 36,000  Level Kansas City Center
12:41PM 38.2800 -99.6508 248° West 394 453 36,000  Level Kansas City Center
12:42PM 38.2322 -99.7944 247° West 395 455 36,000  Level Kansas City Center
12:43PM 38.1917 -99.9175 247° West 395 455 36,000  Level Kansas City Center
12:44PM 38.1439 -100.0600 247° West 394 453 36,000  Level Kansas City Center
12:45PM 38.1019 -100.1831 247° West 396 456 36,000  Level Kansas City Center
12:46PM 38.0539 -100.3261 247° West 395 455 36,000  Level Kansas City Center
12:47PM 38.0131 -100.4483 247° West 395 455 36,000  Level Kansas City Center
12:49PM 37.9644 -100.5900 247° West 394 453 36,000  Level Kansas City Center
12:50PM 37.9239 -100.7108 247° West 393 452 36,000  Level Kansas City Center
12:51PM 37.8639 -100.8411 240° Southwest 387 445 36,000  Level Kansas City Center
12:52PM 37.8106 -100.9500 238° Southwest 385 443 36,000  Level Kansas City Center
12:53PM 37.7475 -101.0811 239° Southwest 383 441 36,000  Level Kansas City Center
12:54PM 37.6972 -101.1842 238° Southwest 381 438 36,000  Level Kansas City Center
12:55PM 37.6356 -101.3103 238° Southwest 380 437 36,000  Level Kansas City Center
12:56PM 37.5831 -101.4181 238° Southwest 379 436 36,000  Level Kansas City Center
12:57PM 37.5208 -101.5422 238° Southwest 377 434 36,000  Level Kansas City Center
12:58PM 37.4681 -101.6506 238° Southwest 379 436 36,000  Level Kansas City Center
12:59PM 37.4078 -101.7747 239° Southwest 375 432 36,000  Level Kansas City Center
01:00PM 37.3544 -101.8811 238° Southwest 375 432 36,000  Level Kansas City Center
01:01PM 37.3197 -101.9517 238° Southwest 373 429 36,000  Level Albuquerque Center
01:02PM 37.2589 -102.0758 238° Southwest 373 429 36,000  Level Albuquerque Center
01:03PM 37.2058 -102.1789 237° Southwest 370 426 36,000  Level Albuquerque Center
01:04PM 37.1453 -102.3017 238° Southwest 370 426 36,000  Level Albuquerque Center
01:05PM 37.0928 -102.4050 238° Southwest 369 425 36,000  Level Albuquerque Center
01:06PM 37.0311 -102.5253 237° Southwest 367 422 36,000  Level Albuquerque Center
01:07PM 36.9789 -102.6294 238° Southwest 368 423 36,000  Level Albuquerque Center
01:08PM 36.9172 -102.7514 238° Southwest 372 428 36,000  Level Albuquerque Center
01:09PM 36.8667 -102.8511 238° Southwest 373 429 36,000  Level Albuquerque Center
01:10PM 36.8003 -102.9800 237° Southwest 375 432 36,000  Level Albuquerque Center
01:11PM 36.7444 -103.0917 238° Southwest 375 432 36,000  Level Albuquerque Center
01:12PM 36.6925 -103.2044 240° Southwest 374 430 36,000  Level Albuquerque Center
01:13PM 36.6456 -103.3233 244° Southwest 376 433 36,000  Level Albuquerque Center
01:14PM 36.5958 -103.4400 242° Southwest 379 436 36,000  Level Albuquerque Center
01:15PM 36.5461 -103.5561 242° Southwest 377 434 36,000  Level Albuquerque Center
01:16PM 36.4969 -103.6719 242° Southwest 377 434 36,000  Level Albuquerque Center
01:17PM 36.4386 -103.8086 242° Southwest 380 437 36,000  Level Albuquerque Center
01:18PM 36.3894 -103.9247 242° Southwest 378 435 36,000  Level Albuquerque Center
01:19PM 36.3392 -104.0403 242° Southwest 378 435 36,000  Level Albuquerque Center
01:20PM 36.2900 -104.1572 242° Southwest 380 437 36,000  Level Albuquerque Center
01:21PM 36.2397 -104.2719 242° Southwest 378 435 36,000  Level Albuquerque Center
01:22PM 36.1894 -104.3878 242° Southwest 380 437 36,000  Level Albuquerque Center
01:23PM 36.1308 -104.5214 242° Southwest 378 435 36,000  Level Albuquerque Center
01:24PM 36.0825 -104.6356 242° Southwest 376 433 36,000  Level Albuquerque Center
01:25PM 36.0322 -104.7503 242° Southwest 376 433 36,000  Level Albuquerque Center
01:26PM 35.9811 -104.8661 241° Southwest 380 437 36,000  Level Albuquerque Center
01:27PM 35.9278 -104.9831 241° Southwest 386 444 36,000  Level Albuquerque Center
01:28PM 35.8789 -105.0969 242° Southwest 379 436 36,000  Level Albuquerque Center
01:29PM 35.8267 -105.2125 241° Southwest 381 438 36,000  Level Albuquerque Center
01:31PM 35.7664 -105.3453 241° Southwest 380 437 36,000  Level Albuquerque Center
01:32PM 35.7161 -105.4575 241° Southwest 375 432 36,000 -540 Level Albuquerque Center
01:33PM 35.6922 -105.5800 257° West 386 444 34,900 -2,040 Descending Albuquerque Center
01:34PM 35.6792 -105.7183 263° West 403 464 31,900 -2,940 Descending Albuquerque Center
01:35PM 35.6647 -105.8600 263° West 415 478 28,900 -2,940 Descending Albuquerque Center
01:36PM 35.6522 -105.9992 264° West 414 476 25,900 -3,240 Descending Albuquerque Center
01:37PM 35.6378 -106.1556 264° West 389 448 22,300 -3,060 Descending Albuquerque Center
01:38PM 35.6250 -106.2797 263° West 375 432 19,600 -2,520 Descending Albuquerque Center
01:39PM 35.6131 -106.4006 263° West 362 417 17,200 -2,340 Descending Albuquerque Center
01:40PM 35.5997 -106.5153 262° West 332 382 15,000 -1,620 Descending Albuquerque Center
01:41PM 35.5472 -106.6047 234° Southwest 287 330 14,000 -480 Descending Albuquerque Center
01:42PM 35.4689 -106.6458 203° Southwest 304 350 14,000 -900 Level Albuquerque Center
01:43PM 35.3925 -106.6839 202° Southwest 298 343 12,200 -1,680 Descending Albuquerque Center
01:44PM 35.3192 -106.7256 205° Southwest 289 333 10,500 -1,440 Descending Albuquerque Center
01:45PM 35.2478 -106.7625 203° Southwest 283 326 9,200 -1,140 Descending Albuquerque Center
01:46PM 35.1728 -106.7681 183° South 276 318 8,200 -960 Descending Albuquerque Center
01:46PM 35.1447 -106.7686 181° South 256 295 8,000 -540 Descending Albuquerque Center
01:47PM 35.1036 -106.7708 183° South 259 298 7,700 -420 Descending Albuquerque Center